createdAt,value
2023-01-13T00:04:50.422Z,100117.69
2023-01-13T00:09:51.973Z,100121.81
2023-01-13T00:14:53.582Z,100131.84
2023-01-13T00:19:56.177Z,100130.97
2023-01-13T00:25:01.528Z,100129.97
2023-01-13T00:30:04.706Z,100128.94
2023-01-13T00:35:06.522Z,100125.41
2023-01-13T00:40:08.870Z,100135.72
2023-01-13T00:45:10.985Z,100138.94
2023-01-13T00:50:15.663Z,100131.88
2023-01-13T00:55:17.108Z,100144.59
2023-01-13T01:00:19.153Z,100137.63
2023-01-13T01:05:20.629Z,100129.22
2023-01-13T01:10:25.559Z,100129.22
2023-01-13T01:15:29.361Z,100130.06
2023-01-13T01:20:30.807Z,100126.72
2023-01-13T01:25:33.267Z,100120.75
2023-01-13T01:30:34.917Z,100119.91
2023-01-13T01:35:40.074Z,100119.78
2023-01-13T01:40:44.220Z,100108.56
2023-01-13T01:45:45.662Z,100115.41
2023-01-13T01:50:48.627Z,100124.75
2023-01-13T01:55:51.403Z,100140.19
2023-01-13T02:00:59.083Z,100125.34
2023-01-13T02:06:00.682Z,100121.06
2023-01-13T02:11:02.143Z,100137.16
2023-01-13T02:16:14.049Z,100146.56
2023-01-13T02:21:34.119Z,100147.34
2023-01-13T02:26:54.255Z,100146.34
2023-01-13T02:32:03.406Z,100128.28
2023-01-13T02:37:13.545Z,100137.81
2023-01-13T02:42:44.266Z,100127.59
2023-01-13T02:47:50.245Z,100120.56
2023-01-13T02:52:58.903Z,100106.00
2023-01-13T02:58:04.767Z,100095.66
2023-01-13T03:03:06.236Z,100075.41
2023-01-13T03:08:39.532Z,100094.19
2023-01-13T03:13:44.550Z,100085.63
2023-01-13T03:18:56.976Z,100096.84
2023-01-13T03:24:13.065Z,100090.94
2023-01-13T03:29:25.901Z,100083.03
2023-01-13T03:34:34.878Z,100075.59
2023-01-13T03:39:43.274Z,100073.88
2023-01-13T03:44:55.673Z,100074.56
2023-01-13T03:50:10.552Z,100085.88
2023-01-13T03:55:20.547Z,100082.34
2023-01-13T04:00:26.741Z,100096.00
2023-01-13T04:05:28.906Z,100096.00
2023-01-13T04:10:38.277Z,100106.00
2023-01-13T04:15:45.101Z,100108.53
2023-01-13T04:20:49.118Z,100102.53
2023-01-13T04:25:51.674Z,100108.53
2023-01-13T04:30:53.283Z,100103.22
2023-01-13T04:35:55.162Z,100081.97
2023-01-13T04:40:56.608Z,100088.75
2023-01-13T04:45:58.170Z,100102.44
2023-01-13T04:50:59.626Z,100105.81
2023-01-13T04:56:01.076Z,100094.06
2023-01-13T05:01:02.483Z,100083.63
2023-01-13T05:06:03.978Z,100098.34
2023-01-13T05:11:25.557Z,100101.59
2023-01-13T05:16:45.753Z,100100.00
2023-01-13T05:22:05.573Z,100083.56
2023-01-13T05:27:07.095Z,100085.28
2023-01-13T05:32:08.991Z,100094.66
2023-01-13T05:37:12.182Z,100091.31
2023-01-13T05:42:32.175Z,100077.50
2023-01-13T05:47:33.746Z,100100.00
2023-01-13T05:52:35.168Z,100087.81
2023-01-13T05:57:36.569Z,100090.44
2023-01-13T06:02:38.176Z,100088.78
2023-01-13T06:07:39.559Z,100091.13
2023-01-13T06:12:41.332Z,100096.50
2023-01-13T06:17:42.866Z,100100.72
2023-01-13T06:22:47.809Z,100104.94
2023-01-13T06:27:49.489Z,100104.75
2023-01-13T06:32:55.393Z,100108.97
2023-01-13T06:37:59.689Z,100093.47
2023-01-13T06:43:17.042Z,100110.50
2023-01-13T06:48:33.033Z,100122.50
2023-01-13T06:53:34.609Z,100128.78
2023-01-13T06:58:36.028Z,100138.19
2023-01-13T07:03:37.496Z,100138.22
2023-01-13T07:08:38.921Z,100132.31
2023-01-13T07:14:00.632Z,100141.66
2023-01-13T07:19:02.030Z,100149.38
2023-01-13T07:24:03.665Z,100157.16
2023-01-13T07:29:05.120Z,100152.13
2023-01-13T07:34:07.400Z,100150.22
2023-01-13T07:39:08.866Z,100153.63
2023-01-13T07:44:10.822Z,100155.50
2023-01-13T07:49:13.130Z,100159.84
2023-01-13T07:54:14.580Z,100149.78
2023-01-13T07:59:16.228Z,100152.38
2023-01-13T08:04:17.764Z,100159.25
2023-01-13T08:09:19.385Z,100161.78
2023-01-13T08:14:21.290Z,100163.31
2023-01-13T08:19:22.730Z,100178.84
2023-01-13T08:24:24.430Z,100183.97
2023-01-13T08:29:25.893Z,100184.06
2023-01-13T08:34:27.354Z,100189.25
2023-01-13T08:39:28.835Z,100196.25
2023-01-13T08:44:32.061Z,100210.84
2023-01-13T08:49:33.523Z,100215.91
2023-01-13T08:54:39.104Z,100210.78
2023-01-13T08:59:40.972Z,100207.44
2023-01-13T09:04:42.772Z,100196.28
2023-01-13T09:09:44.583Z,100200.38
2023-01-13T09:14:46.052Z,100209.03
2023-01-13T09:19:47.633Z,100205.81
2023-01-13T09:24:49.290Z,100222.31
2023-01-13T09:29:50.730Z,100228.88
2023-01-13T09:35:01.252Z,100239.81
2023-01-13T09:40:07.226Z,100248.34
2023-01-13T09:45:26.020Z,100271.34
2023-01-13T09:50:46.954Z,100257.31
2023-01-13T09:55:48.724Z,100292.34
2023-01-13T10:01:05.377Z,100294.69
2023-01-13T10:06:38.832Z,100295.41
2023-01-13T10:12:05.139Z,100299.63
2023-01-13T10:17:18.781Z,100299.66
2023-01-13T10:22:48.367Z,100318.59
2023-01-13T10:27:52.713Z,100312.66
2023-01-13T10:33:00.739Z,100299.81
2023-01-13T10:38:02.190Z,100316.19
2023-01-13T10:43:06.526Z,100313.72
2023-01-13T10:48:15.424Z,100323.16
2023-01-13T10:53:22.233Z,100333.59
2023-01-13T10:58:24.805Z,100325.13
2023-01-13T11:03:34.216Z,100340.50
2023-01-13T11:08:45.854Z,100336.75
2023-01-13T11:14:10.075Z,100350.34
2023-01-13T11:19:17.096Z,100346.19
2023-01-13T11:24:50.044Z,100338.69
2023-01-13T11:30:03.004Z,100352.69
2023-01-13T11:35:16.250Z,100350.25
2023-01-13T11:40:29.017Z,100349.50
2023-01-13T11:45:42.945Z,100347.94
2023-01-13T11:51:00.513Z,100359.06
2023-01-13T11:56:27.617Z,100379.78
2023-01-13T12:01:49.142Z,100372.97
2023-01-13T12:07:01.361Z,100383.38
2023-01-13T12:12:34.845Z,100390.34
2023-01-13T12:18:13.882Z,100397.16
2023-01-13T12:23:37.194Z,100409.84
2023-01-13T12:28:54.763Z,100406.41
2023-01-13T12:34:18.060Z,100420.06
2023-01-13T12:39:56.920Z,100421.63
2023-01-13T12:45:11.680Z,100427.34
2023-01-13T12:50:36.797Z,100430.81
2023-01-13T12:55:38.300Z,100442.94
2023-01-13T13:00:40.690Z,100436.19
2023-01-13T13:06:03.357Z,100448.31
2023-01-13T13:11:32.838Z,100443.41
2023-01-13T13:16:47.745Z,100456.56
2023-01-13T13:22:09.228Z,100474.50
2023-01-13T13:27:27.917Z,100489.34
2023-01-13T13:33:13.491Z,100485.31
2023-01-13T13:38:51.993Z,100498.16
2023-01-13T13:44:12.393Z,100502.72
2023-01-13T13:49:21.125Z,100518.03
2023-01-13T13:54:22.887Z,100516.44
2023-01-13T13:59:32.887Z,100528.59
2023-01-13T14:04:37.698Z,100537.09
2023-01-13T14:09:45.758Z,100553.47
2023-01-13T14:14:49.077Z,100560.34
2023-01-13T14:19:53.224Z,100573.25
2023-01-13T14:24:58.429Z,100592.22
2023-01-13T14:30:01.630Z,100588.75
2023-01-13T14:35:06.769Z,100604.94
2023-01-13T14:40:36.531Z,100605.94
2023-01-13T14:45:37.955Z,100621.38
2023-01-13T14:50:39.532Z,100627.53
2023-01-13T14:55:42.010Z,100636.81
2023-01-13T15:00:43.482Z,100645.53
2023-01-13T15:05:51.327Z,100655.09
2023-01-13T15:10:59.888Z,100668.63
2023-01-13T15:16:05.754Z,100678.19
2023-01-13T15:21:09.523Z,100694.38
2023-01-13T15:26:29.162Z,100693.66
2023-01-13T15:31:30.683Z,100693.50
2023-01-13T15:36:34.178Z,100710.75
2023-01-13T15:41:53.894Z,100734.69
2023-01-13T15:46:56.054Z,100741.56
2023-01-13T15:51:57.482Z,100750.72
2023-01-13T15:56:58.930Z,100761.91
2023-01-13T16:02:00.332Z,100765.34
2023-01-13T16:07:01.768Z,100773.78
2023-01-13T16:12:03.301Z,100777.31
2023-01-13T16:17:16.563Z,100794.25
2023-01-13T16:22:18.775Z,100788.38
2023-01-13T16:27:22.776Z,100787.59
2023-01-13T16:32:24.239Z,100795.31
2023-01-13T16:37:27.679Z,100796.31
2023-01-13T16:42:29.165Z,100806.59
2023-01-13T16:47:30.565Z,100811.31
2023-01-13T16:52:32.013Z,100810.34
2023-01-13T16:57:33.444Z,100818.31
2023-01-13T17:02:34.867Z,100819.03
2023-01-13T17:07:36.311Z,100840.69
2023-01-13T17:12:37.751Z,100836.56
2023-01-13T17:17:39.432Z,100843.97
2023-01-13T17:22:42.478Z,100844.09
2023-01-13T17:27:45.365Z,100847.72
2023-01-13T17:32:46.967Z,100889.59
2023-01-13T17:37:50.344Z,100913.34
2023-01-13T17:42:51.776Z,100917.00
2023-01-13T17:47:57.941Z,100907.16
2023-01-13T17:52:59.382Z,100926.03
2023-01-13T17:58:00.843Z,100964.44
2023-01-13T18:03:02.356Z,100958.22
2023-01-13T18:08:04.004Z,100965.00
2023-01-13T18:13:06.447Z,100976.84
2023-01-13T18:18:07.892Z,100943.56
2023-01-13T18:23:46.409Z,100945.06
2023-01-13T18:28:48.537Z,100938.47
2023-01-13T18:33:50.003Z,100948.44
2023-01-13T18:38:52.630Z,100940.72
2023-01-13T18:43:54.043Z,100949.50
2023-01-13T18:48:55.564Z,100967.00
2023-01-13T18:53:57.214Z,100958.00
2023-01-13T18:58:59.094Z,100970.94
2023-01-13T19:04:05.489Z,100962.16
2023-01-13T19:09:08.756Z,100974.41
2023-01-13T19:14:10.167Z,100981.59
2023-01-13T19:19:11.681Z,101000.25
2023-01-13T19:24:14.348Z,101005.59
2023-01-13T19:29:15.818Z,101001.53
2023-01-13T19:34:17.452Z,101005.44
2023-01-13T19:39:20.168Z,101018.09
2023-01-13T19:44:40.315Z,101044.16
2023-01-13T19:49:41.780Z,101046.63
2023-01-13T19:54:47.098Z,101055.50
2023-01-13T19:59:48.601Z,101053.00
2023-01-13T20:04:56.093Z,101058.91
2023-01-13T20:09:59.234Z,101064.13
2023-01-13T20:15:01.082Z,101069.53
2023-01-13T20:20:05.144Z,101074.19
2023-01-13T20:25:08.596Z,101075.28
2023-01-13T20:30:13.625Z,101086.59
2023-01-13T20:35:15.492Z,101084.56
2023-01-13T20:40:19.370Z,101103.44
2023-01-13T20:45:26.861Z,101097.00
2023-01-13T20:50:30.604Z,101106.13
2023-01-13T20:55:33.280Z,101115.91
2023-01-13T21:00:37.511Z,101126.75
2023-01-13T21:05:39.112Z,101141.41
2023-01-13T21:10:40.562Z,101132.91
2023-01-13T21:15:48.309Z,101130.69
2023-01-13T21:21:14.137Z,101130.78
2023-01-13T21:26:16.890Z,101133.47
2023-01-13T21:31:18.332Z,101137.72
2023-01-13T21:36:20.097Z,101138.88
2023-01-13T21:41:45.155Z,101138.00
2023-01-13T21:47:06.503Z,101150.81
2023-01-13T21:52:08.055Z,101155.81
2023-01-13T21:57:09.449Z,101154.16
2023-01-13T22:02:40.946Z,101153.25
2023-01-13T22:07:43.991Z,101157.78
2023-01-13T22:12:46.008Z,101166.69
2023-01-13T22:17:51.413Z,101176.19
2023-01-13T22:22:52.852Z,101183.06
2023-01-13T22:28:03.469Z,101193.16
2023-01-13T22:33:04.897Z,101198.84
2023-01-13T22:38:07.322Z,101193.81
2023-01-13T22:43:10.033Z,101197.97
2023-01-13T22:48:12.333Z,101196.53
2023-01-13T22:53:14.062Z,101197.25
2023-01-13T22:58:18.822Z,101195.56
2023-01-13T23:03:21.149Z,101195.50
2023-01-13T23:08:25.511Z,101205.06
2023-01-13T23:13:27.027Z,101218.91
2023-01-13T23:18:32.092Z,101224.72
2023-01-13T23:23:34.944Z,101233.97
2023-01-13T23:28:38.444Z,101226.09
2023-01-13T23:33:46.329Z,101222.09
2023-01-13T23:38:47.870Z,101213.38
2023-01-13T23:43:56.976Z,101208.53
2023-01-13T23:48:58.569Z,101196.44
2023-01-13T23:54:02.690Z,101206.56
2023-01-13T23:59:04.143Z,101207.78
